Time;durP1;ratioP1;P1;durP2;ratioP2;P2;SDS_P1;SDS_P2;PMS_P1;PMS_P2;Temp;Humidity;BMP_temperature;BMP_pressure;BME280_temperature;BME280_humidity;BME280_pressure;Samples;Min_cycle;Max_cycle;Signal;HPM_P1;HPM_P2
2022/11/17 00:00:26;;;;;;;9.82;2.63;;;;;;;13.07;100.00;98960.09;5050566;28;20060;-73
2022/11/17 00:02:53;;;;;;;11.65;3.10;;;;;;;13.06;100.00;98948.22;5051481;28;20056;-73
2022/11/17 00:05:20;;;;;;;9.48;2.70;;;;;;;13.08;100.00;98937.44;5056908;28;20182;-73
2022/11/17 00:07:47;;;;;;;8.27;2.47;;;;;;;13.09;100.00;98936.22;5049969;28;20052;-73
2022/11/17 00:10:16;;;;;;;11.15;2.60;;;;;;;13.06;100.00;98931.56;5049203;28;20059;-74
2022/11/17 00:15:28;;;;;;;11.00;2.50;;;;;;;13.02;100.00;98937.28;5048770;28;20860;-74
2022/11/17 00:21:17;;;;;;;6.25;2.35;;;;;;;13.03;100.00;98926.94;5049914;28;20049;-72
2022/11/17 00:26:20;;;;;;;9.18;2.63;;;;;;;12.95;100.00;98901.44;5036504;28;20059;-74
2022/11/17 00:28:50;;;;;;;8.18;2.47;;;;;;;12.95;100.00;98900.66;5032919;28;20138;-72
2022/11/17 00:34:05;;;;;;;8.40;2.65;;;;;;;12.88;100.00;98879.50;5036676;28;20053;-74
2022/11/17 00:36:33;;;;;;;12.00;2.50;;;;;;;12.83;100.00;98866.22;5027714;28;20049;-74
2022/11/17 00:39:00;;;;;;;12.32;2.25;;;;;;;12.79;100.00;98856.47;5040763;28;20045;-72
2022/11/17 00:41:27;;;;;;;10.68;2.75;;;;;;;12.74;100.00;98849.53;5032995;28;20883;-73
2022/11/17 00:43:54;;;;;;;10.80;3.10;;;;;;;12.76;100.00;98835.22;5036829;28;20049;-72
2022/11/17 00:46:20;;;;;;;8.70;2.53;;;;;;;12.73;100.00;98825.03;5036107;28;20407;-74
2022/11/17 00:48:47;;;;;;;9.30;3.00;;;;;;;12.72;100.00;98812.38;5069298;28;20782;-74
2022/11/17 00:51:13;;;;;;;10.32;2.85;;;;;;;12.70;100.00;98823.16;5034885;28;20060;-72
2022/11/17 00:53:40;;;;;;;8.25;2.50;;;;;;;12.69;100.00;98807.75;5035606;28;20045;-73
2022/11/17 00:56:06;;;;;;;8.75;2.55;;;;;;;12.64;100.00;98794.47;5040788;28;20064;-73
2022/11/17 00:58:34;;;;;;;8.30;2.22;;;;;;;12.68;100.00;98786.75;5034952;28;20053;-72
2022/11/17 01:01:01;;;;;;;13.43;3.35;;;;;;;12.67;100.00;98793.56;5035969;28;20045;-72
2022/11/17 01:03:28;;;;;;;9.52;2.53;;;;;;;12.65;100.00;98793.22;5036048;28;20049;-73
2022/11/17 01:05:54;;;;;;;8.65;2.50;;;;;;;12.74;100.00;98782.16;5035454;28;20868;-74
2022/11/17 01:08:21;;;;;;;11.13;2.70;;;;;;;12.74;100.00;98776.63;5038922;28;20044;-72
2022/11/17 01:10:47;;;;;;;10.20;2.83;;;;;;;12.71;100.00;98774.75;5030082;28;20260;-72
2022/11/17 01:13:16;;;;;;;9.65;2.42;;;;;;;12.66;100.00;98775.38;5034831;28;20059;-72
2022/11/17 01:15:43;;;;;;;8.80;2.30;;;;;;;12.70;100.00;98764.91;5034501;28;20052;-72
2022/11/17 01:18:09;;;;;;;7.45;2.60;;;;;;;12.70;100.00;98762.13;5035692;28;20060;-72
2022/11/17 01:20:36;;;;;;;9.05;2.40;;;;;;;12.72;100.00;98768.75;5033785;28;20052;-72
2022/11/17 01:23:03;;;;;;;5.55;2.03;;;;;;;12.71;100.00;98767.22;5034574;28;20056;-71
2022/11/17 01:25:30;;;;;;;8.80;1.98;;;;;;;12.67;100.00;98763.03;5035993;28;20063;-72
2022/11/17 01:27:56;;;;;;;6.03;2.20;;;;;;;12.69;100.00;98760.59;5033454;28;20691;-72
2022/11/17 01:30:23;;;;;;;6.47;2.40;;;;;;;12.70;100.00;98754.56;5032988;28;20064;-75
2022/11/17 01:32:49;;;;;;;6.60;2.20;;;;;;;12.68;100.00;98751.47;5039436;28;20060;-72
2022/11/17 01:35:16;;;;;;;7.88;2.22;;;;;;;12.66;100.00;98755.94;5040395;28;20059;-73
2022/11/17 01:37:42;;;;;;;8.57;2.15;;;;;;;12.65;100.00;98735.75;5036260;28;20045;-73
2022/11/17 01:40:12;;;;;;;8.10;2.63;;;;;;;12.61;100.00;98734.34;5035456;28;20056;-74
2022/11/17 01:42:38;;;;;;;6.47;2.40;;;;;;;12.56;100.00;98724.63;5034693;28;20056;-73
2022/11/17 01:45:20;;;;;;;10.90;2.25;;;;;;;12.53;100.00;98727.53;5034433;28;20045;-73
2022/11/17 01:48:00;;;;;;;8.73;2.05;;;;;;;12.42;100.00;98713.34;5014676;28;20465;-73
2022/11/17 01:50:36;;;;;;;6.40;2.15;;;;;;;12.43;100.00;98706.56;5031200;28;20048;-73
2022/11/17 01:53:07;;;;;;;;;;;;;;;12.40;100.00;98699.16;5041110;28;20052;-73
2022/11/17 01:55:41;;;;;;;4.72;2.15;;;;;;;12.39;100.00;98684.50;5037995;28;19935;-72
2022/11/17 01:58:12;;;;;;;8.32;2.47;;;;;;;12.35;100.00;98686.66;5033828;28;20049;-73
2022/11/17 02:00:39;;;;;;;4.85;2.33;;;;;;;12.26;100.00;98681.06;5032482;28;20053;-73
2022/11/17 02:03:06;;;;;;;7.00;2.33;;;;;;;12.30;100.00;98690.03;5036043;28;20052;-74
2022/11/17 02:05:53;;;;;;;8.27;2.85;;;;;;;12.30;100.00;98675.38;5035792;28;20056;-73
2022/11/17 02:08:22;;;;;;;7.57;2.60;;;;;;;12.27;100.00;98670.75;5036332;28;20057;-73
2022/11/17 02:10:50;;;;;;;4.78;1.98;;;;;;;12.24;100.00;98671.66;5029622;28;20067;-73
2022/11/17 02:13:19;;;;;;;7.25;2.83;;;;;;;12.19;100.00;98658.41;5034654;28;20130;-73
2022/11/17 02:15:46;;;;;;;6.53;2.35;;;;;;;12.16;100.00;98656.56;5033019;28;20060;-73
2022/11/17 02:18:14;;;;;;;7.93;2.40;;;;;;;12.18;100.00;98641.00;5033612;28;20100;-73
2022/11/17 02:20:50;;;;;;;7.63;2.00;;;;;;;12.14;100.00;98648.69;5032434;28;20140;-73
2022/11/17 02:23:23;;;;;;;7.78;2.20;;;;;;;12.18;100.00;98631.91;5035142;28;20083;-73
2022/11/17 02:26:14;;;;;;;7.20;2.17;;;;;;;12.12;100.00;98642.06;5034202;28;20060;-73
2022/11/17 02:28:59;;;;;;;8.45;2.35;;;;;;;12.09;100.00;98601.41;5034106;28;20053;-73
2022/11/17 02:32:00;;;;;;;7.77;2.10;;;;;;;12.08;100.00;98613.72;5037762;28;20056;-75
2022/11/17 02:34:34;;;;;;;6.53;1.98;;;;;;;12.10;100.00;98617.59;5035150;28;21137;-73
2022/11/17 02:37:24;;;;;;;8.25;2.00;;;;;;;12.10;100.00;98602.94;5064748;28;20061;-74
2022/11/17 02:39:54;;;;;;;6.85;2.00;;;;;;;12.14;100.00;98601.56;5028207;28;20060;-73
2022/11/17 02:44:02;;;;;;;5.70;2.58;;;;;;;12.12;100.00;98603.28;5032436;28;20052;-73
2022/11/17 02:45:20;;;;;;;7.20;1.95;;;;;;;12.04;100.00;98599.22;5034208;28;20773;-72
2022/11/17 02:47:52;;;;;;;11.95;2.35;;;;;;;12.05;100.00;98598.00;5032744;28;20052;-71
2022/11/17 02:50:22;;;;;;;6.70;2.10;;;;;;;12.06;100.00;98594.00;5033000;28;20072;-72
2022/11/17 02:52:54;;;;;;;10.00;2.35;;;;;;;12.08;100.00;98594.31;5032742;28;20182;-72
2022/11/17 02:55:20;;;;;;;5.97;2.15;;;;;;;12.05;100.00;98582.13;5032675;28;20429;-72
2022/11/17 02:57:48;;;;;;;5.10;2.30;;;;;;;12.07;100.00;98576.91;5038936;28;20053;-72
2022/11/17 03:00:17;;;;;;;6.97;2.10;;;;;;;12.08;100.00;98577.69;5032807;28;20132;-72
2022/11/17 03:03:02;;;;;;;4.10;1.88;;;;;;;12.04;100.00;98575.06;5054773;28;20052;-71
2022/11/17 03:05:46;;;;;;;3.80;1.92;;;;;;;11.99;100.00;98566.59;5028189;28;20053;-72
2022/11/17 03:08:35;;;;;;;5.30;1.48;;;;;;;12.02;100.00;98560.13;5028265;28;20053;-72
2022/11/17 03:11:04;;;;;;;3.83;1.52;;;;;;;11.93;100.00;98549.78;5050247;28;20060;-74
2022/11/17 03:13:42;;;;;;;6.30;2.03;;;;;;;12.03;100.00;98553.34;5039745;28;20111;-73
2022/11/17 03:16:36;;;;;;;6.95;2.35;;;;;;;12.05;100.00;98564.75;5047297;28;20053;-73
2022/11/17 03:19:05;;;;;;;5.50;2.10;;;;;;;12.01;100.00;98564.09;5054295;28;20049;-73
2022/11/17 03:21:57;;;;;;;4.05;1.35;;;;;;;12.02;100.00;98546.28;5046376;28;20433;-72
2022/11/17 03:24:30;;;;;;;3.22;1.35;;;;;;;11.98;100.00;98548.41;5048498;28;20397;-71
2022/11/17 03:27:04;;;;;;;9.18;2.60;;;;;;;12.04;100.00;98535.47;5052879;28;20051;-73
2022/11/17 03:29:34;;;;;;;5.93;1.87;;;;;;;12.06;100.00;98533.03;5047418;28;20044;-72
2022/11/17 03:32:05;;;;;;;6.75;1.70;;;;;;;12.03;100.00;98533.94;5046951;28;20665;-72
2022/11/17 03:34:38;;;;;;;5.20;1.65;;;;;;;12.06;100.00;98539.34;5048066;28;20056;-73
2022/11/17 03:37:07;;;;;;;3.53;1.52;;;;;;;12.01;100.00;98522.53;5047964;28;20052;-73
2022/11/17 03:39:38;;;;;;;8.38;2.13;;;;;;;12.08;100.00;98522.25;5047010;28;20068;-73
2022/11/17 03:42:37;;;;;;;3.80;1.70;;;;;;;11.96;100.00;98517.63;5050406;28;20041;-72
2022/11/17 03:45:16;;;;;;;5.18;1.50;;;;;;;12.03;100.00;98511.78;5045249;28;20054;-73
2022/11/17 03:47:44;;;;;;;3.20;1.05;;;;;;;12.00;100.00;98512.69;5045551;28;20052;-72
2022/11/17 03:50:16;;;;;;;5.03;1.77;;;;;;;11.93;100.00;98519.31;5046705;28;20053;-71
2022/11/17 03:52:43;;;;;;;4.65;1.52;;;;;;;11.93;100.00;98516.53;5047187;28;20460;-73
2022/11/17 03:55:11;;;;;;;5.88;1.70;;;;;;;11.96;100.00;98517.63;5050747;28;20060;-72
2022/11/17 03:57:48;;;;;;;3.55;1.25;;;;;;;11.84;100.00;98505.41;5051719;28;20045;-72
2022/11/17 04:00:17;;;;;;;6.30;1.70;;;;;;;11.87;100.00;98500.97;5051735;28;20049;-73
2022/11/17 04:02:46;;;;;;;5.43;1.83;;;;;;;11.88;100.00;98496.97;5051060;28;20090;-72
2022/11/17 04:05:16;;;;;;;1.38;1.15;;;;;;;11.82;100.00;98496.81;5050486;28;20520;-73
2022/11/17 04:07:44;;;;;;;2.30;1.45;;;;;;;11.88;100.00;98488.66;5050385;28;20049;-72
2022/11/17 04:10:13;;;;;;;1.48;1.08;;;;;;;11.77;100.00;98489.09;5050381;28;20468;-73
2022/11/17 04:18:12;;;;;;;3.60;1.48;;;;;;;11.79;100.00;98464.50;5051552;28;20053;-73
2022/11/17 04:20:39;;;;;;;3.72;1.30;;;;;;;11.82;100.00;98474.66;5049046;28;20040;-74
2022/11/17 04:23:08;;;;;;;5.90;1.67;;;;;;;11.84;100.00;98460.31;5050372;28;20056;-72
2022/11/17 04:28:38;;;;;;;5.22;1.67;;;;;;;11.88;100.00;98455.41;5043400;28;20060;-72
2022/11/17 04:31:14;;;;;;;3.30;1.38;;;;;;;11.82;100.00;98433.09;5049480;28;20699;-72
2022/11/17 04:33:47;;;;;;;4.55;1.58;;;;;;;11.80;100.00;98454.16;5051394;28;20056;-72
2022/11/17 04:36:16;;;;;;;3.08;1.30;;;;;;;11.81;100.00;98439.84;5050473;28;20053;-73
2022/11/17 04:38:45;;;;;;;1.63;1.05;;;;;;;11.78;100.00;98429.69;5050947;28;20628;-70
2022/11/17 04:44:00;;;;;;;4.53;1.52;;;;;;;11.90;100.00;98442.63;5050788;28;20545;-72
2022/11/17 04:46:28;;;;;;;4.30;1.77;;;;;;;11.90;100.00;98434.31;5050357;28;20048;-73
2022/11/17 04:48:55;;;;;;;2.00;1.02;;;;;;;11.85;100.00;98434.16;5050515;28;20053;-72
2022/11/17 04:51:23;;;;;;;1.83;1.00;;;;;;;11.95;100.00;98439.25;5049814;28;20044;-73
2022/11/17 04:53:50;;;;;;;4.15;1.20;;;;;;;11.98;100.00;98448.66;5051472;28;20084;-73
2022/11/17 04:56:18;;;;;;;4.10;1.20;;;;;;;11.96;100.00;98446.34;5051907;28;20057;-73
2022/11/17 04:58:44;;;;;;;2.60;1.42;;;;;;;11.95;100.00;98444.03;5050849;28;20043;-73
2022/11/17 05:01:11;;;;;;;2.95;1.20;;;;;;;12.00;100.00;98446.19;5046899;28;20060;-73
2022/11/17 05:03:49;;;;;;;3.00;1.40;;;;;;;12.05;100.00;98435.25;5058576;28;20456;-72
2022/11/17 05:06:28;;;;;;;2.10;0.70;;;;;;;11.98;100.00;98441.09;5050085;28;20057;-72
2022/11/17 05:08:55;;;;;;;4.45;1.42;;;;;;;12.01;100.00;98442.94;5050890;28;20041;-72
2022/11/17 05:14:10;;;;;;;6.15;1.25;;;;;;;12.08;100.00;98426.00;5050223;28;20048;-73
2022/11/17 05:19:24;;;;;;;;;;;;;;;12.06;100.00;98408.31;5050697;28;20054;-73
2022/11/17 05:21:50;;;;;;;4.90;1.92;;;;;;;12.12;100.00;98421.06;5049649;28;19928;-73
2022/11/17 05:24:17;;;;;;;6.90;1.50;;;;;;;12.06;100.00;98427.72;5051297;28;20044;-73
2022/11/17 05:26:45;;;;;;;2.40;1.38;;;;;;;12.12;100.00;98421.06;5049843;28;20049;-72
2022/11/17 05:29:14;;;;;;;2.47;1.00;;;;;;;12.07;100.00;98421.72;5049926;28;20111;-73
2022/11/17 05:31:41;;;;;;;4.32;1.92;;;;;;;12.09;100.00;98416.47;5049226;28;20095;-72
2022/11/17 05:34:11;;;;;;;3.80;1.42;;;;;;;12.10;100.00;98415.25;5049175;28;20064;-73
2022/11/17 05:36:38;;;;;;;4.40;1.58;;;;;;;12.15;100.00;98414.63;5048510;28;20056;-72
2022/11/17 05:39:05;;;;;;;4.82;1.40;;;;;;;12.16;100.00;98415.41;5049289;28;20044;-73
2022/11/17 05:41:31;;;;;;;4.28;1.08;;;;;;;12.16;100.00;98420.94;5048300;28;20757;-73
2022/11/17 05:43:58;;;;;;;7.10;1.63;;;;;;;12.22;100.00;98417.06;5049760;28;20501;-74
2022/11/17 05:46:25;;;;;;;6.70;2.75;;;;;;;12.25;100.00;98415.41;5048902;28;20064;-73
2022/11/17 05:48:52;;;;;;;5.43;1.60;;;;;;;12.22;100.00;98419.84;5049323;28;20044;-73
2022/11/17 05:51:20;;;;;;;3.40;1.80;;;;;;;12.28;100.00;98418.00;5045069;28;20049;-72
2022/11/17 05:53:48;;;;;;;3.88;1.85;;;;;;;12.29;100.00;98427.09;5043351;28;20060;-74
2022/11/17 05:56:41;;;;;;;5.13;1.58;;;;;;;12.29;100.00;98432.63;5049199;28;20049;-72
2022/11/17 05:59:16;;;;;;;7.05;1.70;;;;;;;12.29;100.00;98436.16;5048980;28;20691;-72
2022/11/17 06:01:51;;;;;;;4.00;1.60;;;;;;;12.24;100.00;98430.47;5048876;28;20049;-72
2022/11/17 06:04:19;;;;;;;4.63;1.70;;;;;;;12.23;100.00;98423.41;5054292;28;20056;-73
2022/11/17 06:06:47;;;;;;;7.13;1.90;;;;;;;12.15;100.00;98419.41;5048795;28;20064;-72
2022/11/17 06:09:14;;;;;;;5.68;1.83;;;;;;;12.13;100.00;98430.19;5048729;28;20067;-73
2022/11/17 06:11:40;;;;;;;9.15;1.98;;;;;;;12.07;100.00;98413.41;5045449;28;20767;-75
2022/11/17 06:14:07;;;;;;;7.57;1.92;;;;;;;12.10;100.00;98417.25;5048971;28;20048;-73
2022/11/17 06:16:40;;;;;;;7.03;1.98;;;;;;;12.07;100.00;98418.16;5047823;28;20498;-72
2022/11/17 06:19:12;;;;;;;8.02;2.15;;;;;;;12.03;100.00;98417.53;5050511;28;20045;-74
2022/11/17 06:21:39;;;;;;;5.35;2.03;;;;;;;12.01;100.00;98409.69;5046236;28;20497;-75
2022/11/17 06:24:26;;;;;;;6.53;1.90;;;;;;;11.99;100.00;98406.63;5048754;28;20118;-73
2022/11/17 06:26:52;;;;;;;7.88;2.17;;;;;;;11.96;100.00;98395.69;5046969;28;20626;-73
2022/11/17 06:29:19;;;;;;;4.05;1.73;;;;;;;11.90;100.00;98398.31;5048756;28;20045;-73
2022/11/17 06:31:46;;;;;;;5.97;1.98;;;;;;;11.91;100.00;98397.06;5047083;28;20111;-74
2022/11/17 06:34:12;;;;;;;6.53;2.20;;;;;;;11.86;100.00;98391.38;5048279;28;20060;-72
2022/11/17 06:36:39;;;;;;;10.40;3.15;;;;;;;11.87;100.00;98395.66;5050831;28;20041;-73
2022/11/17 06:39:05;;;;;;;7.68;2.28;;;;;;;11.92;100.00;98400.63;5064207;28;20048;-72
2022/11/17 06:41:32;;;;;;;7.53;2.53;;;;;;;11.89;100.00;98404.31;5047586;28;20045;-72
2022/11/17 06:43:58;;;;;;;11.95;2.03;;;;;;;11.87;100.00;98415.06;5048052;28;20513;-73
2022/11/17 06:46:36;;;;;;;6.38;2.28;;;;;;;11.89;100.00;98409.84;5048904;28;20391;-72
2022/11/17 06:49:05;;;;;;;6.38;2.08;;;;;;;11.90;100.00;98414.94;5049194;28;20052;-74
2022/11/17 06:51:35;;;;;;;9.40;3.50;;;;;;;11.86;100.00;98397.69;5047240;28;20072;-74
2022/11/17 06:54:08;;;;;;;6.80;2.97;;;;;;;11.90;100.00;98414.16;5048381;28;20060;-72
2022/11/17 06:56:35;;;;;;;7.60;3.28;;;;;;;11.90;100.00;98406.63;5046715;28;20055;-72
2022/11/17 06:59:01;;;;;;;13.80;2.70;;;;;;;11.90;100.00;98417.69;5047923;28;20063;-71
2022/11/17 07:01:28;;;;;;;10.57;3.05;;;;;;;11.92;100.00;98414.47;5047326;28;20132;-73
2022/11/17 07:03:54;;;;;;;7.05;2.83;;;;;;;11.94;100.00;98414.75;5047906;28;20056;-73
2022/11/17 07:06:21;;;;;;;6.68;2.20;;;;;;;11.94;100.00;98409.22;5048206;28;20070;-73
2022/11/17 07:08:47;;;;;;;5.85;2.10;;;;;;;12.01;100.00;98414.47;5048036;28;20175;-72
2022/11/17 07:11:15;;;;;;;11.00;2.20;;;;;;;12.04;100.00;98416.31;5046612;28;20052;-75
2022/11/17 07:13:42;;;;;;;5.78;2.03;;;;;;;12.11;100.00;98408.47;5048150;28;20420;-72
2022/11/17 07:16:14;;;;;;;8.57;2.20;;;;;;;12.12;100.00;98414.78;5047913;28;20143;-73
2022/11/17 07:18:49;;;;;;;4.50;1.85;;;;;;;12.11;100.00;98414.00;5047115;28;20071;-72
2022/11/17 07:21:16;;;;;;;8.20;2.05;;;;;;;12.10;100.00;98414.47;5046685;28;20053;-73
2022/11/17 07:23:44;;;;;;;7.28;1.80;;;;;;;12.13;100.00;98408.78;5036280;28;20115;-74
2022/11/17 07:26:11;;;;;;;3.95;1.67;;;;;;;12.15;100.00;98414.63;5048928;28;20152;-73
2022/11/17 07:28:38;;;;;;;6.80;1.95;;;;;;;12.15;100.00;98420.16;5048016;28;20136;-73
2022/11/17 07:31:06;;;;;;;10.93;2.58;;;;;;;12.22;100.00;98421.88;5053103;28;20072;-74
2022/11/17 07:33:34;;;;;;;10.05;2.35;;;;;;;12.24;100.00;98422.16;5054478;28;20517;-75
2022/11/17 07:36:08;;;;;;;5.85;1.95;;;;;;;12.22;100.00;98436.47;5050021;28;20065;-73
2022/11/17 07:38:36;;;;;;;8.15;2.20;;;;;;;12.29;100.00;98424.31;5054272;28;20045;-74
2022/11/17 07:41:05;;;;;;;12.68;2.88;;;;;;;12.29;100.00;98422.31;5051075;28;20366;-72
2022/11/17 07:43:33;;;;;;;3.03;1.55;;;;;;;12.29;100.00;98433.41;5049166;28;20142;-72
2022/11/17 07:46:09;;;;;;;5.97;1.65;;;;;;;12.24;100.00;98436.81;5052018;28;20053;-72
2022/11/17 07:48:35;;;;;;;8.43;1.92;;;;;;;12.33;100.00;98438.78;5051268;28;20051;-72
2022/11/17 07:51:04;;;;;;;9.70;1.65;;;;;;;12.35;100.00;98444.63;5050781;28;20414;-72
2022/11/17 07:53:32;;;;;;;6.97;2.17;;;;;;;12.38;100.00;98443.72;5054481;28;20053;-75
2022/11/17 07:56:06;;;;;;;8.27;1.65;;;;;;;12.44;100.00;98455.72;5051389;28;20064;-74
2022/11/17 07:58:33;;;;;;;3.40;1.30;;;;;;;12.45;100.00;98454.47;5051134;28;20057;-74
2022/11/17 08:01:08;;;;;;;3.97;1.80;;;;;;;12.52;100.00;98460.50;5053291;28;20052;-73
2022/11/17 08:03:35;;;;;;;5.07;1.65;;;;;;;12.46;100.00;98458.81;5046958;28;20044;-72
2022/11/17 08:06:06;;;;;;;1.17;0.90;;;;;;;12.44;100.00;98483.47;5050454;28;20048;-74
2022/11/17 08:08:33;;;;;;;2.35;1.40;;;;;;;12.48;100.00;98486.84;5043504;28;20132;-73
2022/11/17 08:11:05;;;;;;;3.08;1.15;;;;;;;12.41;100.00;98504.56;5048256;28;20129;-75
2022/11/17 08:13:32;;;;;;;2.35;0.73;;;;;;;12.27;100.00;98509.94;5050749;28;20049;-75
2022/11/17 08:15:59;;;;;;;7.82;2.05;;;;;;;12.33;100.00;98508.91;5050850;28;20506;-72
2022/11/17 08:18:27;;;;;;;2.67;0.88;;;;;;;12.23;100.00;98504.56;5048178;28;20572;-74
2022/11/17 08:21:05;;;;;;;3.00;1.20;;;;;;;12.18;100.00;98510.72;5054778;28;20045;-74
2022/11/17 08:23:33;;;;;;;7.25;1.20;;;;;;;12.15;100.00;98514.41;5043868;28;20080;-74
2022/11/17 08:26:01;;;;;;;1.92;0.82;;;;;;;12.15;100.00;98524.75;5050447;28;20513;-74
2022/11/17 08:28:27;;;;;;;5.05;1.45;;;;;;;12.20;100.00;98519.34;5049402;28;20047;-75
2022/11/17 08:30:54;;;;;;;4.85;1.67;;;;;;;12.20;100.00;98515.81;5045637;28;20688;-72
2022/11/17 08:33:21;;;;;;;5.00;1.23;;;;;;;12.13;100.00;98527.97;5054301;28;20186;-73
2022/11/17 08:35:48;;;;;;;2.10;1.02;;;;;;;12.15;100.00;98527.50;5048250;28;20432;-71
2022/11/17 08:38:14;;;;;;;5.47;1.20;;;;;;;12.08;100.00;98530.59;5041288;28;20705;-75
2022/11/17 08:40:41;;;;;;;3.90;0.98;;;;;;;12.02;100.00;98526.88;5037129;28;20489;-74
2022/11/17 08:43:07;;;;;;;6.43;1.48;;;;;;;11.99;100.00;98528.56;5039172;28;20501;-72
2022/11/17 08:45:34;;;;;;;1.52;0.70;;;;;;;11.93;100.00;98535.94;5038646;28;20064;-74
2022/11/17 08:48:01;;;;;;;6.07;1.30;;;;;;;11.97;100.00;98535.78;5034361;28;20068;-75
2022/11/17 08:50:27;;;;;;;3.30;1.08;;;;;;;11.98;100.00;98534.56;5047922;28;20135;-74
2022/11/17 08:52:54;;;;;;;3.92;1.35;;;;;;;12.01;100.00;98528.06;5053236;28;20056;-73
2022/11/17 08:55:20;;;;;;;2.40;1.15;;;;;;;11.98;100.00;98534.56;5048735;28;20484;-72
2022/11/17 08:57:47;;;;;;;5.88;1.17;;;;;;;11.99;100.00;98539.66;5050214;28;20569;-75
2022/11/17 09:00:15;;;;;;;2.95;1.00;;;;;;;11.97;100.00;98541.31;5050428;28;20131;-73
2022/11/17 09:02:41;;;;;;;4.80;1.63;;;;;;;11.94;100.00;98547.78;5041946;28;20057;-73
2022/11/17 09:05:08;;;;;;;1.65;0.85;;;;;;;11.96;100.00;98556.41;5033821;28;20053;-73
2022/11/17 09:07:34;;;;;;;2.72;0.95;;;;;;;12.04;100.00;98552.09;5044277;28;20055;-74
2022/11/17 09:10:03;;;;;;;4.55;1.13;;;;;;;11.99;100.00;98561.81;5041335;28;20072;-73
2022/11/17 09:12:30;;;;;;;5.32;1.55;;;;;;;12.00;100.00;98557.81;5033670;28;20056;-72
2022/11/17 09:14:56;;;;;;;4.47;1.17;;;;;;;11.97;100.00;98558.72;5064144;28;20061;-73
2022/11/17 09:17:23;;;;;;;3.00;1.40;;;;;;;11.94;100.00;98558.84;5036326;28;20049;-74
2022/11/17 09:19:49;;;;;;;9.23;1.65;;;;;;;11.94;100.00;98562.41;5036730;28;21038;-72
2022/11/17 09:22:16;;;;;;;0.77;0.57;;;;;;;11.93;100.00;98565.63;5035159;28;20044;-76
2022/11/17 09:24:42;;;;;;;8.50;1.48;;;;;;;11.98;100.00;98576.13;5036770;28;20581;-73
2022/11/17 09:27:09;;;;;;;3.70;1.40;;;;;;;11.95;100.00;98577.03;5065645;28;20057;-73
2022/11/17 09:29:35;;;;;;;4.15;1.65;;;;;;;11.99;100.00;98580.44;5031790;28;20051;-72
2022/11/17 09:32:02;;;;;;;2.83;1.15;;;;;;;11.95;100.00;98582.59;5048960;28;20048;-73
2022/11/17 09:34:28;;;;;;;1.67;0.85;;;;;;;11.94;100.00;98589.34;5037314;28;20045;-73
2022/11/17 09:36:55;;;;;;;4.68;0.93;;;;;;;11.98;100.00;98584.44;5034400;28;20269;-73
2022/11/17 09:39:21;;;;;;;4.85;1.20;;;;;;;12.05;100.00;98584.16;5030005;28;20052;-73
2022/11/17 09:41:50;;;;;;;4.57;1.30;;;;;;;12.09;100.00;98587.56;5032637;28;20056;-76
2022/11/17 09:44:23;;;;;;;4.97;1.40;;;;;;;12.11;100.00;98588.63;5038033;28;20053;-73
2022/11/17 09:47:06;;;;;;;2.25;1.02;;;;;;;12.12;100.00;98589.41;5033867;28;20063;-72
2022/11/17 09:49:51;;;;;;;5.10;1.23;;;;;;;12.17;100.00;98594.34;5032205;28;20053;-72
2022/11/17 09:52:49;;;;;;;1.45;0.77;;;;;;;12.15;100.00;98596.81;5038885;28;20056;-72
2022/11/17 09:55:29;;;;;;;5.88;1.75;;;;;;;12.33;100.00;98588.53;5034265;28;20060;-74
2022/11/17 09:58:10;;;;;;;10.82;1.85;;;;;;;12.38;100.00;98587.91;5032227;28;20060;-73
2022/11/17 10:00:39;;;;;;;3.17;1.45;;;;;;;12.34;100.00;98590.06;5025884;28;20063;-75
2022/11/17 10:03:17;;;;;;;3.97;1.63;;;;;;;12.46;100.00;98586.38;5039636;28;20822;-74
2022/11/17 10:05:43;;;;;;;6.15;1.60;;;;;;;12.45;100.00;98595.91;5044375;28;20053;-74
2022/11/17 10:08:17;;;;;;;6.68;1.27;;;;;;;12.44;100.00;98602.72;5044076;28;20505;-72
2022/11/17 10:10:50;;;;;;;9.95;1.85;;;;;;;12.54;100.00;98607.03;5037994;28;20040;-72
2022/11/17 10:13:30;;;;;;;5.95;1.60;;;;;;;12.62;100.00;98608.25;5034263;28;20167;-72
2022/11/17 10:16:04;;;;;;;9.05;1.95;;;;;;;12.67;100.00;98604.91;5042044;28;20053;-74
2022/11/17 10:18:34;;;;;;;4.22;1.55;;;;;;;12.66;100.00;98617.22;5028115;28;20049;-74
2022/11/17 10:21:05;;;;;;;3.00;1.25;;;;;;;12.71;100.00;98620.16;5035592;28;20151;-74
2022/11/17 10:23:42;;;;;;;5.63;1.63;;;;;;;12.67;100.00;98616.00;5041221;28;20057;-74
2022/11/17 10:26:14;;;;;;;9.77;1.60;;;;;;;12.79;100.00;98623.38;5033550;28;20060;-73
2022/11/17 10:28:41;;;;;;;2.47;0.98;;;;;;;12.72;100.00;98618.13;5032827;28;20051;-73
2022/11/17 10:31:15;;;;;;;3.92;0.73;;;;;;;12.80;100.00;98613.84;5039598;28;20520;-73
2022/11/17 10:33:44;;;;;;;4.65;1.17;;;;;;;12.78;100.00;98619.06;5030851;28;20059;-74
2022/11/17 10:36:31;;;;;;;4.03;0.65;;;;;;;12.86;100.00;98626.63;5035504;28;20689;-73
2022/11/17 10:38:59;;;;;;;1.52;0.70;;;;;;;12.79;100.00;98620.59;5040093;28;20394;-74
2022/11/17 10:41:29;;;;;;;5.82;1.63;;;;;;;12.90;100.00;98616.13;5034483;28;20094;-74
2022/11/17 10:43:58;;;;;;;7.25;1.23;;;;;;;12.95;100.00;98620.31;5059952;28;20056;-74
2022/11/17 10:46:25;;;;;;;4.32;0.95;;;;;;;12.93;100.00;98631.13;5033807;28;20056;-74
2022/11/17 10:49:03;;;;;;;6.95;1.38;;;;;;;12.98;100.00;98627.72;5037999;28;20141;-72
2022/11/17 10:51:32;;;;;;;2.55;0.60;;;;;;;12.90;100.00;98621.69;5055038;28;20051;-74
2022/11/17 10:54:18;;;;;;;1.13;0.57;;;;;;;13.04;100.00;98628.66;5047462;28;20087;-74
2022/11/17 10:56:54;;;;;;;6.70;1.17;;;;;;;13.23;100.00;98635.72;5046033;28;20063;-74
2022/11/17 10:59:32;;;;;;;1.58;0.25;;;;;;;13.31;100.00;98641.75;5037426;28;20852;-74
2022/11/17 11:02:24;;;;;;;3.08;1.10;;;;;;;13.35;100.00;98634.81;5021538;28;20045;-72
2022/11/17 11:05:08;;;;;;;2.97;0.98;;;;;;;13.47;100.00;98647.75;5052445;28;20715;-75
2022/11/17 11:07:35;;;;;;;3.50;0.88;;;;;;;13.87;100.00;98653.06;5061827;28;20053;-73
2022/11/17 11:10:13;;;;;;;4.28;1.70;;;;;;;14.09;100.00;98648.78;5033643;28;20152;-74
2022/11/17 11:13:07;;;;;;;2.42;0.95;;;;;;;13.97;100.00;98643.44;5033886;28;20099;-73
2022/11/17 11:15:35;;;;;;;5.95;1.17;;;;;;;13.81;100.00;98644.59;5042382;28;20045;-73
2022/11/17 11:18:12;;;;;;;1.55;0.60;;;;;;;13.64;100.00;98646.19;5036221;28;20064;-74
2022/11/17 11:20:46;;;;;;;0.65;0.65;;;;;;;13.64;100.00;98648.97;5036948;28;20056;-72
2022/11/17 11:23:38;;;;;;;3.38;1.00;;;;;;;13.72;100.00;98641.81;5034399;28;20078;-74
2022/11/17 11:26:31;;;;;;;2.22;0.90;;;;;;;13.60;100.00;98648.31;5030463;28;20645;-72
2022/11/17 11:29:20;;;;;;;3.20;1.05;;;;;;;13.63;100.00;98646.66;5034713;28;20049;-75
2022/11/17 11:32:04;;;;;;;1.35;1.02;;;;;;;13.58;100.00;98645.25;5032839;28;20053;-73
2022/11/17 11:34:49;;;;;;;2.92;0.80;;;;;;;13.65;100.00;98644.94;5036891;28;20059;-72
2022/11/17 11:37:15;;;;;;;2.78;0.63;;;;;;;13.60;100.00;98637.22;5033224;28;20052;-73
2022/11/17 11:40:25;;;;;;;5.63;0.95;;;;;;;13.66;100.00;98645.69;5036611;28;20076;-72
2022/11/17 11:43:03;;;;;;;1.80;0.80;;;;;;;13.62;100.00;98658.97;5011146;28;20159;-72
2022/11/17 11:45:52;;;;;;;4.18;1.23;;;;;;;13.71;100.00;98659.75;5011940;28;20052;-72
2022/11/17 11:48:25;;;;;;;3.80;0.90;;;;;;;13.67;100.00;98661.13;5011788;28;20060;-72
2022/11/17 11:51:09;;;;;;;5.30;1.23;;;;;;;13.69;100.00;98659.44;5009861;28;20056;-73
2022/11/17 11:53:48;;;;;;;6.97;1.35;;;;;;;13.77;100.00;98666.19;5004520;28;20049;-72
2022/11/17 11:56:20;;;;;;;5.80;1.27;;;;;;;13.70;100.00;98676.88;5010882;28;20060;-72
2022/11/17 11:59:06;;;;;;;2.78;1.42;;;;;;;13.68;100.00;98666.22;5021209;28;20057;-73
2022/11/17 12:01:43;;;;;;;1.15;0.77;;;;;;;13.56;100.00;98669.94;5021833;28;20045;-73
2022/11/17 12:04:32;;;;;;;3.83;0.90;;;;;;;13.66;100.00;98690.91;5013548;28;20049;-71
2022/11/17 12:07:12;;;;;;;1.15;0.60;;;;;;;13.62;100.00;98679.22;5008841;28;20045;-74
2022/11/17 12:10:02;;;;;;;2.22;0.80;;;;;;;13.57;100.00;98688.16;5016149;28;20049;-72
2022/11/17 12:12:32;;;;;;;0.75;0.60;;;;;;;13.59;100.00;98682.91;5010100;28;20061;-74